sensor_id;sensor_type;location;lat;lon;timestamp;pressure;altitude;pressure_sealevel;temperature;humidity
73566;BME280;61846;52.970;-3.168;2024-03-08T00:00:39;100681.97;;;4.33;59.83
73566;BME280;61846;52.970;-3.168;2024-03-08T00:03:05;100681.10;;;3.44;63.93
73566;BME280;61846;52.970;-3.168;2024-03-08T00:05:30;100675.78;;;4.01;61.40
73566;BME280;61846;52.970;-3.168;2024-03-08T00:07:56;100672.57;;;4.00;61.90
73566;BME280;61846;52.970;-3.168;2024-03-08T00:10:21;100673.26;;;4.82;59.51
73566;BME280;61846;52.970;-3.168;2024-03-08T00:12:46;100672.12;;;4.54;60.72
73566;BME280;61846;52.970;-3.168;2024-03-08T00:15:13;100673.18;;;3.95;62.75
73566;BME280;61846;52.970;-3.168;2024-03-08T00:17:37;100666.93;;;4.38;61.52
73566;BME280;61846;52.970;-3.168;2024-03-08T00:20:03;100662.66;;;2.88;64.76
73566;BME280;61846;52.970;-3.168;2024-03-08T00:22:28;100661.43;;;4.12;62.04
73566;BME280;61846;52.970;-3.168;2024-03-08T00:24:54;100664.63;;;3.11;63.87
73566;BME280;61846;52.970;-3.168;2024-03-08T00:27:19;100658.63;;;4.17;60.34
73566;BME280;61846;52.970;-3.168;2024-03-08T00:29:44;100660.56;;;3.62;61.64
73566;BME280;61846;52.970;-3.168;2024-03-08T00:32:10;100664.24;;;3.63;62.96
73566;BME280;61846;52.970;-3.168;2024-03-08T00:34:36;100661.47;;;3.42;62.57
73566;BME280;61846;52.970;-3.168;2024-03-08T00:37:01;100653.42;;;3.29;63.41
73566;BME280;61846;52.970;-3.168;2024-03-08T00:39:28;100650.38;;;2.57;64.31
73566;BME280;61846;52.970;-3.168;2024-03-08T00:41:52;100642.75;;;2.43;65.19
73566;BME280;61846;52.970;-3.168;2024-03-08T00:44:18;100636.86;;;3.53;60.73
73566;BME280;61846;52.970;-3.168;2024-03-08T00:46:43;100634.86;;;3.46;61.47
73566;BME280;61846;52.970;-3.168;2024-03-08T00:49:08;100630.87;;;4.75;58.04
73566;BME280;61846;52.970;-3.168;2024-03-08T00:51:34;100633.42;;;2.85;61.30
73566;BME280;61846;52.970;-3.168;2024-03-08T00:53:59;100622.18;;;3.72;59.64
73566;BME280;61846;52.970;-3.168;2024-03-08T00:56:25;100615.93;;;4.35;58.22
73566;BME280;61846;52.970;-3.168;2024-03-08T00:58:51;100610.79;;;3.72;58.49
73566;BME280;61846;52.970;-3.168;2024-03-08T01:01:16;100610.82;;;4.30;56.62
73566;BME280;61846;52.970;-3.168;2024-03-08T01:03:43;100608.51;;;4.26;56.05
73566;BME280;61846;52.970;-3.168;2024-03-08T01:06:07;100609.12;;;4.30;55.59
73566;BME280;61846;52.970;-3.168;2024-03-08T01:08:33;100600.97;;;4.60;55.29
73566;BME280;61846;52.970;-3.168;2024-03-08T01:10:58;100600.30;;;4.40;56.27
73566;BME280;61846;52.970;-3.168;2024-03-08T01:13:24;100596.93;;;4.32;56.31
73566;BME280;61846;52.970;-3.168;2024-03-08T01:15:50;100592.89;;;4.02;57.70
73566;BME280;61846;52.970;-3.168;2024-03-08T01:18:15;100590.16;;;4.87;54.51
73566;BME280;61846;52.970;-3.168;2024-03-08T01:20:41;100587.01;;;5.93;52.11
73566;BME280;61846;52.970;-3.168;2024-03-08T01:23:06;100582.14;;;5.43;51.37
73566;BME280;61846;52.970;-3.168;2024-03-08T01:25:31;100581.43;;;6.01;51.19
73566;BME280;61846;52.970;-3.168;2024-03-08T01:27:57;100572.92;;;5.12;52.39
73566;BME280;61846;52.970;-3.168;2024-03-08T01:30:22;100576.66;;;4.60;54.23
73566;BME280;61846;52.970;-3.168;2024-03-08T01:32:48;100570.76;;;4.86;54.60
73566;BME280;61846;52.970;-3.168;2024-03-08T01:35:14;100569.59;;;4.18;55.62
73566;BME280;61846;52.970;-3.168;2024-03-08T01:37:40;100563.83;;;6.29;51.37
73566;BME280;61846;52.970;-3.168;2024-03-08T01:40:06;100562.79;;;6.14;50.90
73566;BME280;61846;52.970;-3.168;2024-03-08T01:42:30;100561.26;;;5.95;51.60
73566;BME280;61846;52.970;-3.168;2024-03-08T01:44:56;100554.95;;;5.32;53.15
73566;BME280;61846;52.970;-3.168;2024-03-08T01:47:21;100560.28;;;4.18;56.54
73566;BME280;61846;52.970;-3.168;2024-03-08T01:49:46;100554.64;;;4.29;56.84
73566;BME280;61846;52.970;-3.168;2024-03-08T01:52:11;100550.15;;;3.72;58.43
73566;BME280;61846;52.970;-3.168;2024-03-08T01:54:37;100540.93;;;5.53;54.49
73566;BME280;61846;52.970;-3.168;2024-03-08T01:57:02;100540.92;;;5.43;52.94
73566;BME280;61846;52.970;-3.168;2024-03-08T01:59:28;100538.98;;;4.40;56.73
73566;BME280;61846;52.970;-3.168;2024-03-08T02:01:55;100524.78;;;5.71;53.83
73566;BME280;61846;52.970;-3.168;2024-03-08T02:04:19;100528.24;;;4.69;55.24
73566;BME280;61846;52.970;-3.168;2024-03-08T02:06:44;100530.54;;;4.10;58.09
73566;BME280;61846;52.970;-3.168;2024-03-08T02:09:09;100522.95;;;4.86;56.52
73566;BME280;61846;52.970;-3.168;2024-03-08T02:11:35;100518.71;;;4.72;56.76
73566;BME280;61846;52.970;-3.168;2024-03-08T02:14:00;100517.69;;;4.40;56.85
73566;BME280;61846;52.970;-3.168;2024-03-08T02:16:25;100512.15;;;4.70;56.85
73566;BME280;61846;52.970;-3.168;2024-03-08T02:18:51;100506.52;;;5.76;53.65
73566;BME280;61846;52.970;-3.168;2024-03-08T02:21:17;100505.43;;;4.98;55.02
73566;BME280;61846;52.970;-3.168;2024-03-08T02:23:42;100503.22;;;5.37;53.68
73566;BME280;61846;52.970;-3.168;2024-03-08T02:26:07;100504.27;;;5.22;54.53
73566;BME280;61846;52.970;-3.168;2024-03-08T02:28:33;100495.61;;;6.27;52.36
73566;BME280;61846;52.970;-3.168;2024-03-08T02:30:58;100496.11;;;4.22;56.08
73566;BME280;61846;52.970;-3.168;2024-03-08T02:33:24;100484.71;;;4.83;55.99
73566;BME280;61846;52.970;-3.168;2024-03-08T02:35:49;100478.17;;;5.16;53.96
73566;BME280;61846;52.970;-3.168;2024-03-08T02:38:16;100472.51;;;6.63;51.64
73566;BME280;61846;52.970;-3.168;2024-03-08T02:40:41;100473.99;;;5.06;54.55
73566;BME280;61846;52.970;-3.168;2024-03-08T02:43:06;100468.63;;;5.05;54.60
73566;BME280;61846;52.970;-3.168;2024-03-08T02:45:32;100458.64;;;6.50;51.46
73566;BME280;61846;52.970;-3.168;2024-03-08T02:47:57;100461.57;;;5.77;53.27
73566;BME280;61846;52.970;-3.168;2024-03-08T02:50:23;100455.06;;;5.14;54.07
73566;BME280;61846;52.970;-3.168;2024-03-08T02:52:48;100454.62;;;4.49;56.52
73566;BME280;61846;52.970;-3.168;2024-03-08T02:55:14;100453.76;;;4.52;56.84
73566;BME280;61846;52.970;-3.168;2024-03-08T02:57:39;100450.59;;;5.23;56.03
73566;BME280;61846;52.970;-3.168;2024-03-08T03:00:06;100446.07;;;3.53;60.90
73566;BME280;61846;52.970;-3.168;2024-03-08T03:02:30;100449.02;;;3.13;62.72
73566;BME280;61846;52.970;-3.168;2024-03-08T03:04:56;100448.44;;;3.06;63.54
73566;BME280;61846;52.970;-3.168;2024-03-08T03:07:21;100445.73;;;3.13;61.80
73566;BME280;61846;52.970;-3.168;2024-03-08T03:09:46;100438.71;;;2.88;63.17
73566;BME280;61846;52.970;-3.168;2024-03-08T03:12:12;100436.15;;;3.31;62.17
73566;BME280;61846;52.970;-3.168;2024-03-08T03:14:37;100426.68;;;3.88;61.17
73566;BME280;61846;52.970;-3.168;2024-03-08T03:17:03;100424.13;;;4.56;59.46
73566;BME280;61846;52.970;-3.168;2024-03-08T03:19:28;100421.61;;;5.74;56.28
73566;BME280;61846;52.970;-3.168;2024-03-08T03:21:54;100417.80;;;4.86;57.41
73566;BME280;61846;52.970;-3.168;2024-03-08T03:24:19;100418.84;;;4.57;58.75
73566;BME280;61846;52.970;-3.168;2024-03-08T03:26:44;100407.66;;;5.67;55.46
73566;BME280;61846;52.970;-3.168;2024-03-08T03:29:10;100404.71;;;6.40;52.94
73566;BME280;61846;52.970;-3.168;2024-03-08T03:31:35;100406.00;;;4.43;57.23
73566;BME280;61846;52.970;-3.168;2024-03-08T03:34:01;100397.26;;;5.88;54.64
73566;BME280;61846;52.970;-3.168;2024-03-08T03:36:26;100392.46;;;6.61;52.52
73566;BME280;61846;52.970;-3.168;2024-03-08T03:38:52;100386.86;;;5.97;53.47
73566;BME280;61846;52.970;-3.168;2024-03-08T03:41:17;100385.17;;;7.36;50.70
73566;BME280;61846;52.970;-3.168;2024-03-08T03:43:42;100386.02;;;6.37;51.57
73566;BME280;61846;52.970;-3.168;2024-03-08T03:46:08;100381.97;;;7.05;51.45
73566;BME280;61846;52.970;-3.168;2024-03-08T03:48:33;100377.43;;;6.71;51.67
73566;BME280;61846;52.970;-3.168;2024-03-08T03:50:59;100377.21;;;6.56;52.26
73566;BME280;61846;52.970;-3.168;2024-03-08T03:53:24;100371.42;;;5.18;55.04
73566;BME280;61846;52.970;-3.168;2024-03-08T03:55:49;100365.27;;;5.25;55.82
73566;BME280;61846;52.970;-3.168;2024-03-08T03:58:15;100370.24;;;2.87;62.69
73566;BME280;61846;52.970;-3.168;2024-03-08T04:00:40;100368.55;;;3.57;62.22
73566;BME280;61846;52.970;-3.168;2024-03-08T04:03:06;100364.22;;;3.33;63.56
73566;BME280;61846;52.970;-3.168;2024-03-08T04:05:31;100359.35;;;2.57;66.85
73566;BME280;61846;52.970;-3.168;2024-03-08T04:07:57;100357.76;;;3.25;65.13
73566;BME280;61846;52.970;-3.168;2024-03-08T04:10:22;100359.63;;;2.93;65.39
73566;BME280;61846;52.970;-3.168;2024-03-08T04:12:48;100350.93;;;3.67;64.20
73566;BME280;61846;52.970;-3.168;2024-03-08T04:15:14;100343.55;;;3.87;63.52
73566;BME280;61846;52.970;-3.168;2024-03-08T04:17:38;100347.98;;;2.40;66.36
73566;BME280;61846;52.970;-3.168;2024-03-08T04:20:04;100342.84;;;3.34;64.53
73566;BME280;61846;52.970;-3.168;2024-03-08T04:22:29;100335.83;;;3.53;64.88
73566;BME280;61846;52.970;-3.168;2024-03-08T04:24:54;100335.99;;;2.93;67.58
73566;BME280;61846;52.970;-3.168;2024-03-08T04:27:20;100329.11;;;3.88;64.78
73566;BME280;61846;52.970;-3.168;2024-03-08T04:29:45;100320.88;;;4.07;65.21
73566;BME280;61846;52.970;-3.168;2024-03-08T04:32:11;100322.89;;;4.68;63.54
73566;BME280;61846;52.970;-3.168;2024-03-08T04:34:36;100325.55;;;2.87;67.62
73566;BME280;61846;52.970;-3.168;2024-03-08T04:37:02;100314.72;;;3.69;66.13
73566;BME280;61846;52.970;-3.168;2024-03-08T04:39:28;100317.37;;;4.29;64.15
73566;BME280;61846;52.970;-3.168;2024-03-08T04:41:53;100320.24;;;2.56;67.94
73566;BME280;61846;52.970;-3.168;2024-03-08T04:44:18;100317.98;;;3.79;66.88
73566;BME280;61846;52.970;-3.168;2024-03-08T04:46:43;100315.51;;;5.39;60.38
73566;BME280;61846;52.970;-3.168;2024-03-08T04:49:09;100311.43;;;4.09;63.00
73566;BME280;61846;52.970;-3.168;2024-03-08T04:51:34;100312.94;;;4.67;63.58
73566;BME280;61846;52.970;-3.168;2024-03-08T04:54:00;100312.18;;;3.77;65.87
73566;BME280;61846;52.970;-3.168;2024-03-08T04:56:25;100313.84;;;2.86;68.31
73566;BME280;61846;52.970;-3.168;2024-03-08T04:58:51;100308.62;;;3.09;67.42
73566;BME280;61846;52.970;-3.168;2024-03-08T05:01:16;100305.12;;;4.10;64.78
73566;BME280;61846;52.970;-3.168;2024-03-08T05:03:41;100301.81;;;3.47;66.45
73566;BME280;61846;52.970;-3.168;2024-03-08T05:06:07;100301.26;;;3.15;68.46
73566;BME280;61846;52.970;-3.168;2024-03-08T05:08:32;100300.15;;;4.79;63.65
73566;BME280;61846;52.970;-3.168;2024-03-08T05:10:58;100302.44;;;3.91;65.73
73566;BME280;61846;52.970;-3.168;2024-03-08T05:13:23;100299.42;;;4.93;63.18
73566;BME280;61846;52.970;-3.168;2024-03-08T05:15:49;100299.72;;;3.47;67.25
73566;BME280;61846;52.970;-3.168;2024-03-08T05:18:14;100296.23;;;3.70;65.74
73566;BME280;61846;52.970;-3.168;2024-03-08T05:20:39;100298.05;;;3.24;68.49
73566;BME280;61846;52.970;-3.168;2024-03-08T05:23:04;100286.93;;;2.96;68.23
73566;BME280;61846;52.970;-3.168;2024-03-08T05:25:30;100273.48;;;4.42;65.03
73566;BME280;61846;52.970;-3.168;2024-03-08T05:27:55;100281.47;;;2.10;72.73
73566;BME280;61846;52.970;-3.168;2024-03-08T05:30:20;100279.23;;;1.43;74.82
73566;BME280;61846;52.970;-3.168;2024-03-08T05:32:45;100276.90;;;3.32;71.40
73566;BME280;61846;52.970;-3.168;2024-03-08T05:35:11;100272.70;;;4.02;68.08
73566;BME280;61846;52.970;-3.168;2024-03-08T05:37:36;100273.10;;;2.88;69.34
73566;BME280;61846;52.970;-3.168;2024-03-08T05:40:01;100269.99;;;3.30;68.50
73566;BME280;61846;52.970;-3.168;2024-03-08T05:42:27;100270.71;;;4.07;67.72
73566;BME280;61846;52.970;-3.168;2024-03-08T05:44:52;100265.62;;;2.80;70.12
73566;BME280;61846;52.970;-3.168;2024-03-08T05:47:18;100264.75;;;2.44;72.75
73566;BME280;61846;52.970;-3.168;2024-03-08T05:49:43;100262.63;;;2.61;70.89
73566;BME280;61846;52.970;-3.168;2024-03-08T05:52:09;100263.81;;;2.69;72.03
73566;BME280;61846;52.970;-3.168;2024-03-08T05:54:35;100252.94;;;3.39;69.26
73566;BME280;61846;52.970;-3.168;2024-03-08T05:56:59;100248.35;;;2.83;70.67
73566;BME280;61846;52.970;-3.168;2024-03-08T05:59:25;100247.69;;;3.29;69.76
73566;BME280;61846;52.970;-3.168;2024-03-08T06:01:51;100239.74;;;4.85;65.19
73566;BME280;61846;52.970;-3.168;2024-03-08T06:04:16;100245.06;;;3.10;69.17
73566;BME280;61846;52.970;-3.168;2024-03-08T06:06:41;100234.10;;;4.23;66.93
73566;BME280;61846;52.970;-3.168;2024-03-08T06:09:07;100243.33;;;2.08;73.70
73566;BME280;61846;52.970;-3.168;2024-03-08T06:11:32;100234.64;;;3.53;69.19
73566;BME280;61846;52.970;-3.168;2024-03-08T06:13:58;100224.12;;;4.38;65.82
73566;BME280;61846;52.970;-3.168;2024-03-08T06:16:23;100233.32;;;3.18;69.37
73566;BME280;61846;52.970;-3.168;2024-03-08T06:18:49;100224.96;;;3.01;69.35
73566;BME280;61846;52.970;-3.168;2024-03-08T06:21:14;100224.00;;;3.58;69.49
73566;BME280;61846;52.970;-3.168;2024-03-08T06:23:40;100218.59;;;4.06;67.26
73566;BME280;61846;52.970;-3.168;2024-03-08T06:26:06;100220.68;;;4.48;66.21
73566;BME280;61846;52.970;-3.168;2024-03-08T06:28:31;100219.31;;;4.57;65.57
73566;BME280;61846;52.970;-3.168;2024-03-08T06:30:57;100217.05;;;5.44;62.83
73566;BME280;61846;52.970;-3.168;2024-03-08T06:33:23;100216.43;;;5.34;61.52
73566;BME280;61846;52.970;-3.168;2024-03-08T06:35:48;100213.10;;;4.18;65.04
73566;BME280;61846;52.970;-3.168;2024-03-08T06:38:14;100217.77;;;4.83;63.67
73566;BME280;61846;52.970;-3.168;2024-03-08T06:40:39;100214.35;;;4.18;65.67
73566;BME280;61846;52.970;-3.168;2024-03-08T06:43:04;100216.31;;;4.44;65.89
73566;BME280;61846;52.970;-3.168;2024-03-08T06:45:30;100207.70;;;5.00;64.57
73566;BME280;61846;52.970;-3.168;2024-03-08T06:47:55;100204.15;;;4.22;67.20
73566;BME280;61846;52.970;-3.168;2024-03-08T06:50:21;100197.23;;;4.76;65.20
73566;BME280;61846;52.970;-3.168;2024-03-08T06:52:46;100201.82;;;3.29;68.05
73566;BME280;61846;52.970;-3.168;2024-03-08T06:55:12;100194.44;;;3.77;68.33
73566;BME280;61846;52.970;-3.168;2024-03-08T06:57:37;100197.32;;;3.81;68.08
73566;BME280;61846;52.970;-3.168;2024-03-08T07:00:03;100191.69;;;3.77;68.77
73566;BME280;61846;52.970;-3.168;2024-03-08T07:02:28;100188.99;;;4.93;65.74
73566;BME280;61846;52.970;-3.168;2024-03-08T07:04:53;100189.13;;;4.74;66.20
73566;BME280;61846;52.970;-3.168;2024-03-08T07:07:18;100187.89;;;4.03;67.00
73566;BME280;61846;52.970;-3.168;2024-03-08T07:09:45;100186.14;;;5.87;62.09
73566;BME280;61846;52.970;-3.168;2024-03-08T07:12:09;100186.14;;;5.25;63.46
73566;BME280;61846;52.970;-3.168;2024-03-08T07:14:37;100182.25;;;6.54;59.27
73566;BME280;61846;52.970;-3.168;2024-03-08T07:17:01;100185.14;;;5.13;61.46
73566;BME280;61846;52.970;-3.168;2024-03-08T07:19:26;100185.42;;;4.74;63.64
73566;BME280;61846;52.970;-3.168;2024-03-08T07:21:52;100183.09;;;6.94;58.04
73566;BME280;61846;52.970;-3.168;2024-03-08T07:24:17;100186.42;;;6.65;57.43
73566;BME280;61846;52.970;-3.168;2024-03-08T07:26:42;100183.03;;;7.76;55.60
73566;BME280;61846;52.970;-3.168;2024-03-08T07:29:08;100180.57;;;7.06;56.80
73566;BME280;61846;52.970;-3.168;2024-03-08T07:31:33;100187.22;;;4.30;62.76
73566;BME280;61846;52.970;-3.168;2024-03-08T07:33:58;100184.31;;;5.73;61.59
73566;BME280;61846;52.970;-3.168;2024-03-08T07:36:24;100185.39;;;4.47;64.01
73566;BME280;61846;52.970;-3.168;2024-03-08T07:38:49;100187.47;;;3.03;68.15
73566;BME280;61846;52.970;-3.168;2024-03-08T07:41:16;100181.73;;;6.09;61.66
73566;BME280;61846;52.970;-3.168;2024-03-08T07:43:40;100180.22;;;6.29;60.07
73566;BME280;61846;52.970;-3.168;2024-03-08T07:46:06;100178.91;;;6.73;58.44
73566;BME280;61846;52.970;-3.168;2024-03-08T07:48:31;100172.72;;;6.82;56.54
73566;BME280;61846;52.970;-3.168;2024-03-08T07:50:57;100177.52;;;4.92;61.73
73566;BME280;61846;52.970;-3.168;2024-03-08T07:53:23;100177.70;;;5.91;61.19
73566;BME280;61846;52.970;-3.168;2024-03-08T07:55:47;100175.40;;;6.65;58.15
73566;BME280;61846;52.970;-3.168;2024-03-08T07:58:13;100178.30;;;5.12;61.57
73566;BME280;61846;52.970;-3.168;2024-03-08T08:00:39;100177.20;;;5.21;62.24
73566;BME280;61846;52.970;-3.168;2024-03-08T08:03:04;100178.90;;;5.99;59.79
73566;BME280;61846;52.970;-3.168;2024-03-08T08:05:29;100178.36;;;4.99;62.72
73566;BME280;61846;52.970;-3.168;2024-03-08T08:07:55;100173.15;;;4.82;63.81
73566;BME280;61846;52.970;-3.168;2024-03-08T08:10:20;100169.56;;;4.77;64.12
73566;BME280;61846;52.970;-3.168;2024-03-08T08:12:46;100167.99;;;5.18;62.20
73566;BME280;61846;52.970;-3.168;2024-03-08T08:15:12;100166.83;;;5.21;62.96
73566;BME280;61846;52.970;-3.168;2024-03-08T08:17:36;100162.87;;;6.39;59.14
73566;BME280;61846;52.970;-3.168;2024-03-08T08:20:02;100164.74;;;5.96;60.56
73566;BME280;61846;52.970;-3.168;2024-03-08T08:22:27;100161.51;;;5.25;62.06
73566;BME280;61846;52.970;-3.168;2024-03-08T08:24:52;100161.96;;;5.54;59.70
73566;BME280;61846;52.970;-3.168;2024-03-08T08:27:17;100160.78;;;4.92;61.19
73566;BME280;61846;52.970;-3.168;2024-03-08T08:29:43;100156.55;;;6.26;57.81
73566;BME280;61846;52.970;-3.168;2024-03-08T08:32:09;100149.95;;;4.21;62.58
73566;BME280;61846;52.970;-3.168;2024-03-08T08:34:34;100151.54;;;4.71;60.48
73566;BME280;61846;52.970;-3.168;2024-03-08T08:36:59;100150.28;;;3.98;63.62
73566;BME280;61846;52.970;-3.168;2024-03-08T08:39:25;100147.46;;;3.27;65.59
73566;BME280;61846;52.970;-3.168;2024-03-08T08:41:51;100143.68;;;4.17;63.50
73566;BME280;61846;52.970;-3.168;2024-03-08T08:44:16;100134.75;;;3.74;64.70
73566;BME280;61846;52.970;-3.168;2024-03-08T08:46:42;100132.82;;;4.73;61.65
73566;BME280;61846;52.970;-3.168;2024-03-08T08:49:07;100131.95;;;5.16;60.66
73566;BME280;61846;52.970;-3.168;2024-03-08T08:51:32;100125.43;;;4.08;62.50
73566;BME280;61846;52.970;-3.168;2024-03-08T08:53:58;100129.75;;;4.57;61.36
73566;BME280;61846;52.970;-3.168;2024-03-08T08:56:24;100124.65;;;4.50;60.97
73566;BME280;61846;52.970;-3.168;2024-03-08T08:58:49;100122.25;;;4.45;60.47
73566;BME280;61846;52.970;-3.168;2024-03-08T09:01:15;100124.79;;;4.34;62.20
73566;BME280;61846;52.970;-3.168;2024-03-08T09:03:40;100119.48;;;4.69;61.50
73566;BME280;61846;52.970;-3.168;2024-03-08T09:06:06;100113.64;;;6.10;57.60
73566;BME280;61846;52.970;-3.168;2024-03-08T09:08:31;100119.79;;;4.08;62.41
73566;BME280;61846;52.970;-3.168;2024-03-08T09:10:56;100114.76;;;3.36;65.53
73566;BME280;61846;52.970;-3.168;2024-03-08T09:13:21;100102.60;;;5.49;60.74
73566;BME280;61846;52.970;-3.168;2024-03-08T09:15:46;100099.39;;;5.43;60.31
73566;BME280;61846;52.970;-3.168;2024-03-08T09:18:12;100099.08;;;5.00;61.55
73566;BME280;61846;52.970;-3.168;2024-03-08T09:20:37;100094.36;;;4.65;62.04
73566;BME280;61846;52.970;-3.168;2024-03-08T09:23:03;100085.70;;;6.73;57.68
73566;BME280;61846;52.970;-3.168;2024-03-08T09:25:29;100087.59;;;5.93;58.29
73566;BME280;61846;52.970;-3.168;2024-03-08T09:27:53;100089.93;;;4.99;59.62
73566;BME280;61846;52.970;-3.168;2024-03-08T09:30:19;100087.79;;;4.02;63.20
73566;BME280;61846;52.970;-3.168;2024-03-08T09:32:44;100079.26;;;6.79;55.82
73566;BME280;61846;52.970;-3.168;2024-03-08T09:35:10;100080.17;;;5.66;58.10
73566;BME280;61846;52.970;-3.168;2024-03-08T09:37:36;100075.23;;;5.81;57.93
73566;BME280;61846;52.970;-3.168;2024-03-08T09:40:01;100071.26;;;4.95;61.21
73566;BME280;61846;52.970;-3.168;2024-03-08T09:42:26;100065.03;;;4.50;61.02
73566;BME280;61846;52.970;-3.168;2024-03-08T09:44:51;100053.24;;;7.21;54.85
73566;BME280;61846;52.970;-3.168;2024-03-08T09:47:18;100054.29;;;6.08;56.59
73566;BME280;61846;52.970;-3.168;2024-03-08T09:49:42;100046.71;;;6.13;56.77
73566;BME280;61846;52.970;-3.168;2024-03-08T09:52:08;100039.13;;;6.96;54.51
73566;BME280;61846;52.970;-3.168;2024-03-08T09:54:34;100040.03;;;5.60;55.98
73566;BME280;61846;52.970;-3.168;2024-03-08T09:56:59;100045.44;;;4.45;60.73
73566;BME280;61846;52.970;-3.168;2024-03-08T09:59:25;100032.98;;;6.99;55.10
73566;BME280;61846;52.970;-3.168;2024-03-08T10:01:50;100038.07;;;4.98;58.62
73566;BME280;61846;52.970;-3.168;2024-03-08T10:04:16;100030.96;;;4.33;59.95
73566;BME280;61846;52.970;-3.168;2024-03-08T10:06:42;100022.71;;;5.90;57.86
73566;BME280;61846;52.970;-3.168;2024-03-08T10:09:07;100019.74;;;5.40;59.22
73566;BME280;61846;52.970;-3.168;2024-03-08T10:11:33;100024.29;;;5.36;59.19
73566;BME280;61846;52.970;-3.168;2024-03-08T10:13:58;100028.97;;;4.39;60.24
73566;BME280;61846;52.970;-3.168;2024-03-08T10:16:23;100024.99;;;5.55;56.96
73566;BME280;61846;52.970;-3.168;2024-03-08T10:18:48;100021.30;;;4.29;60.80
73566;BME280;61846;52.970;-3.168;2024-03-08T10:21:13;100022.61;;;5.22;59.44
73566;BME280;61846;52.970;-3.168;2024-03-08T10:23:39;100016.42;;;5.88;57.62
73566;BME280;61846;52.970;-3.168;2024-03-08T10:26:11;100014.69;;;5.20;58.15
73566;BME280;61846;52.970;-3.168;2024-03-08T10:28:29;100021.42;;;3.86;61.81
73566;BME280;61846;52.970;-3.168;2024-03-08T10:30:56;100009.31;;;4.59;61.14
73566;BME280;61846;52.970;-3.168;2024-03-08T10:33:21;100009.33;;;3.27;63.75
73566;BME280;61846;52.970;-3.168;2024-03-08T10:35:46;100003.71;;;3.92;61.93
73566;BME280;61846;52.970;-3.168;2024-03-08T10:38:16;100004.49;;;4.30;60.79
73566;BME280;61846;52.970;-3.168;2024-03-08T10:40:39;99996.46;;;4.72;59.83
73566;BME280;61846;52.970;-3.168;2024-03-08T10:43:04;99999.91;;;3.94;61.17
73566;BME280;61846;52.970;-3.168;2024-03-08T10:45:33;99997.74;;;4.17;60.78
73566;BME280;61846;52.970;-3.168;2024-03-08T10:48:03;99999.97;;;4.29;61.60
73566;BME280;61846;52.970;-3.168;2024-03-08T10:50:21;99988.38;;;4.24;62.04
73566;BME280;61846;52.970;-3.168;2024-03-08T10:52:46;99977.95;;;4.23;59.74
73566;BME280;61846;52.970;-3.168;2024-03-08T10:55:13;99966.25;;;5.59;57.62
73566;BME280;61846;52.970;-3.168;2024-03-08T10:57:37;99971.94;;;5.34;57.52
73566;BME280;61846;52.970;-3.168;2024-03-08T11:00:02;99965.36;;;5.42;56.91
73566;BME280;61846;52.970;-3.168;2024-03-08T11:02:28;99975.62;;;5.19;57.05
73566;BME280;61846;52.970;-3.168;2024-03-08T11:04:53;99959.12;;;5.33;57.48
73566;BME280;61846;52.970;-3.168;2024-03-08T11:07:20;99963.76;;;4.21;60.31
73566;BME280;61846;52.970;-3.168;2024-03-08T11:09:44;99956.17;;;3.97;61.51
73566;BME280;61846;52.970;-3.168;2024-03-08T11:12:20;99962.85;;;4.50;60.74
73566;BME280;61846;52.970;-3.168;2024-03-08T11:14:42;99945.24;;;5.58;56.62
73566;BME280;61846;52.970;-3.168;2024-03-08T11:17:01;99952.32;;;4.89;58.08
73566;BME280;61846;52.970;-3.168;2024-03-08T11:19:26;99944.87;;;5.26;57.87
73566;BME280;61846;52.970;-3.168;2024-03-08T11:21:58;99934.50;;;6.49;54.04
73566;BME280;61846;52.970;-3.168;2024-03-08T11:24:16;99928.89;;;7.13;52.30
73566;BME280;61846;52.970;-3.168;2024-03-08T11:26:45;99933.38;;;5.51;54.89
73566;BME280;61846;52.970;-3.168;2024-03-08T11:31:34;99926.43;;;5.70;56.22
73566;BME280;61846;52.970;-3.168;2024-03-08T11:34:00;99924.59;;;5.84;55.96
73566;BME280;61846;52.970;-3.168;2024-03-08T11:36:25;99916.37;;;4.89;58.01
73566;BME280;61846;52.970;-3.168;2024-03-08T11:38:50;99913.52;;;5.46;56.58
73566;BME280;61846;52.970;-3.168;2024-03-08T11:41:17;99916.52;;;5.27;57.27
73566;BME280;61846;52.970;-3.168;2024-03-08T11:43:40;99912.03;;;6.02;56.03
73566;BME280;61846;52.970;-3.168;2024-03-08T11:46:09;99910.05;;;5.01;58.52
73566;BME280;61846;52.970;-3.168;2024-03-08T11:48:31;99920.68;;;4.39;59.85
73566;BME280;61846;52.970;-3.168;2024-03-08T11:50:59;99915.36;;;5.28;57.58
73566;BME280;61846;52.970;-3.168;2024-03-08T11:53:22;99898.44;;;6.00;55.04
73566;BME280;61846;52.970;-3.168;2024-03-08T11:55:48;99914.15;;;5.67;56.93
73566;BME280;61846;52.970;-3.168;2024-03-08T11:58:13;99902.08;;;5.69;56.06
73566;BME280;61846;52.970;-3.168;2024-03-08T12:00:38;99893.24;;;5.60;56.97
73566;BME280;61846;52.970;-3.168;2024-03-08T12:03:05;99892.41;;;4.75;58.58
73566;BME280;61846;52.970;-3.168;2024-03-08T12:05:29;99876.35;;;7.07;53.00
73566;BME280;61846;52.970;-3.168;2024-03-08T12:07:57;99876.13;;;6.36;53.29
73566;BME280;61846;52.970;-3.168;2024-03-08T12:10:22;99869.93;;;5.36;56.00
73566;BME280;61846;52.970;-3.168;2024-03-08T12:12:46;99861.62;;;6.51;52.89
73566;BME280;61846;52.970;-3.168;2024-03-08T12:15:11;99863.06;;;5.86;54.30
73566;BME280;61846;52.970;-3.168;2024-03-08T12:17:36;99867.74;;;5.32;54.90
73566;BME280;61846;52.970;-3.168;2024-03-08T12:20:12;99859.51;;;4.66;56.46
73566;BME280;61846;52.970;-3.168;2024-03-08T12:22:30;99850.75;;;5.96;54.06
73566;BME280;61846;52.970;-3.168;2024-03-08T12:25:03;99860.37;;;4.38;57.75
73566;BME280;61846;52.970;-3.168;2024-03-08T12:27:19;99848.95;;;5.71;55.20
73566;BME280;61846;52.970;-3.168;2024-03-08T12:29:43;99842.94;;;5.86;54.76
73566;BME280;61846;52.970;-3.168;2024-03-08T12:32:10;99839.97;;;4.60;57.00
73566;BME280;61846;52.970;-3.168;2024-03-08T12:34:34;99841.58;;;6.33;52.47
73566;BME280;61846;52.970;-3.168;2024-03-08T12:36:59;99838.88;;;4.99;55.71
73566;BME280;61846;52.970;-3.168;2024-03-08T12:39:25;99830.87;;;7.51;50.57
73566;BME280;61846;52.970;-3.168;2024-03-08T12:41:51;99826.55;;;6.91;50.43
73566;BME280;61846;52.970;-3.168;2024-03-08T12:44:16;99829.81;;;5.69;54.03